sensor_id;sensor_type;location;lat;lon;timestamp;P1;durP1;ratioP1;P2;durP2;ratioP2
45893;SDS011;31603;51.148;16.932;2022-09-30T00:00:01;35.40;;;19.33;;
45893;SDS011;31603;51.148;16.932;2022-09-30T00:02:30;34.47;;;20.33;;
45893;SDS011;31603;51.148;16.932;2022-09-30T00:04:57;37.97;;;20.80;;
45893;SDS011;31603;51.148;16.932;2022-09-30T00:07:23;37.03;;;21.17;;
45893;SDS011;31603;51.148;16.932;2022-09-30T00:09:50;36.28;;;19.50;;
45893;SDS011;31603;51.148;16.932;2022-09-30T00:12:16;31.17;;;17.85;;
45893;SDS011;31603;51.148;16.932;2022-09-30T00:14:42;28.85;;;16.67;;
45893;SDS011;31603;51.148;16.932;2022-09-30T00:17:11;34.47;;;20.10;;
45893;SDS011;31603;51.148;16.932;2022-09-30T00:19:41;32.53;;;17.45;;
45893;SDS011;31603;51.148;16.932;2022-09-30T00:22:07;35.25;;;19.98;;
45893;SDS011;31603;51.148;16.932;2022-09-30T00:24:36;31.45;;;18.92;;
45893;SDS011;31603;51.148;16.932;2022-09-30T00:27:03;30.48;;;17.95;;
45893;SDS011;31603;51.148;16.932;2022-09-30T00:29:29;28.42;;;17.40;;
45893;SDS011;31603;51.148;16.932;2022-09-30T00:31:56;35.13;;;19.67;;
45893;SDS011;31603;51.148;16.932;2022-09-30T00:34:22;33.45;;;19.17;;
45893;SDS011;31603;51.148;16.932;2022-09-30T00:36:50;33.78;;;18.15;;
45893;SDS011;31603;51.148;16.932;2022-09-30T00:39:19;31.88;;;18.27;;
45893;SDS011;31603;51.148;16.932;2022-09-30T00:41:47;34.47;;;20.02;;
45893;SDS011;31603;51.148;16.932;2022-09-30T00:47:18;36.22;;;18.77;;
45893;SDS011;31603;51.148;16.932;2022-09-30T00:49:52;38.60;;;19.63;;
45893;SDS011;31603;51.148;16.932;2022-09-30T00:52:22;33.17;;;19.35;;
45893;SDS011;31603;51.148;16.932;2022-09-30T00:54:49;33.35;;;18.98;;
45893;SDS011;31603;51.148;16.932;2022-09-30T00:57:16;36.17;;;21.50;;
45893;SDS011;31603;51.148;16.932;2022-09-30T00:59:43;32.65;;;19.67;;
45893;SDS011;31603;51.148;16.932;2022-09-30T01:02:12;36.55;;;20.35;;
45893;SDS011;31603;51.148;16.932;2022-09-30T01:04:44;36.00;;;20.85;;
45893;SDS011;31603;51.148;16.932;2022-09-30T01:07:11;31.95;;;19.30;;
45893;SDS011;31603;51.148;16.932;2022-09-30T01:09:41;36.88;;;21.15;;
45893;SDS011;31603;51.148;16.932;2022-09-30T01:12:09;33.10;;;18.88;;
45893;SDS011;31603;51.148;16.932;2022-09-30T01:14:40;38.97;;;22.63;;
45893;SDS011;31603;51.148;16.932;2022-09-30T01:17:09;34.63;;;21.90;;
45893;SDS011;31603;51.148;16.932;2022-09-30T01:22:40;37.10;;;21.50;;
45893;SDS011;31603;51.148;16.932;2022-09-30T01:28:22;34.05;;;22.02;;
45893;SDS011;31603;51.148;16.932;2022-09-30T01:31:11;34.85;;;20.42;;
45893;SDS011;31603;51.148;16.932;2022-09-30T01:33:49;36.90;;;18.73;;
45893;SDS011;31603;51.148;16.932;2022-09-30T01:36:34;40.65;;;23.77;;
45893;SDS011;31603;51.148;16.932;2022-09-30T01:39:12;36.10;;;21.10;;
45893;SDS011;31603;51.148;16.932;2022-09-30T01:41:52;41.22;;;22.83;;
45893;SDS011;31603;51.148;16.932;2022-09-30T01:44:29;36.97;;;22.65;;
45893;SDS011;31603;51.148;16.932;2022-09-30T01:47:05;39.60;;;23.98;;
45893;SDS011;31603;51.148;16.932;2022-09-30T01:49:38;40.53;;;24.13;;
45893;SDS011;31603;51.148;16.932;2022-09-30T01:52:09;36.63;;;22.48;;
45893;SDS011;31603;51.148;16.932;2022-09-30T01:54:41;44.97;;;23.23;;
45893;SDS011;31603;51.148;16.932;2022-09-30T01:57:13;38.65;;;23.98;;
45893;SDS011;31603;51.148;16.932;2022-09-30T01:59:46;37.72;;;21.67;;
45893;SDS011;31603;51.148;16.932;2022-09-30T02:02:23;35.92;;;20.92;;
45893;SDS011;31603;51.148;16.932;2022-09-30T02:04:54;34.85;;;21.23;;
45893;SDS011;31603;51.148;16.932;2022-09-30T02:07:35;33.45;;;21.70;;
45893;SDS011;31603;51.148;16.932;2022-09-30T02:10:09;34.10;;;20.25;;
45893;SDS011;31603;51.148;16.932;2022-09-30T02:12:42;31.63;;;19.83;;
45893;SDS011;31603;51.148;16.932;2022-09-30T02:15:15;33.92;;;19.13;;
45893;SDS011;31603;51.148;16.932;2022-09-30T02:17:48;36.50;;;22.15;;
45893;SDS011;31603;51.148;16.932;2022-09-30T02:20:18;34.30;;;20.43;;
45893;SDS011;31603;51.148;16.932;2022-09-30T02:22:50;33.85;;;19.83;;
45893;SDS011;31603;51.148;16.932;2022-09-30T02:25:23;30.50;;;19.33;;
45893;SDS011;31603;51.148;16.932;2022-09-30T02:27:54;29.73;;;18.85;;
45893;SDS011;31603;51.148;16.932;2022-09-30T02:30:24;39.20;;;21.25;;
45893;SDS011;31603;51.148;16.932;2022-09-30T02:32:54;35.45;;;21.33;;
45893;SDS011;31603;51.148;16.932;2022-09-30T02:35:26;36.85;;;21.15;;
45893;SDS011;31603;51.148;16.932;2022-09-30T02:37:56;35.90;;;22.42;;
45893;SDS011;31603;51.148;16.932;2022-09-30T02:40:28;36.97;;;22.15;;
45893;SDS011;31603;51.148;16.932;2022-09-30T02:43:00;35.75;;;22.48;;
45893;SDS011;31603;51.148;16.932;2022-09-30T02:45:28;42.60;;;22.35;;
45893;SDS011;31603;51.148;16.932;2022-09-30T02:48:08;39.92;;;21.95;;
45893;SDS011;31603;51.148;16.932;2022-09-30T02:50:42;36.92;;;23.13;;
45893;SDS011;31603;51.148;16.932;2022-09-30T02:53:14;36.55;;;22.00;;
45893;SDS011;31603;51.148;16.932;2022-09-30T02:58:36;34.53;;;21.13;;
45893;SDS011;31603;51.148;16.932;2022-09-30T03:01:04;37.17;;;24.23;;
45893;SDS011;31603;51.148;16.932;2022-09-30T03:03:34;42.28;;;24.35;;
45893;SDS011;31603;51.148;16.932;2022-09-30T03:06:04;35.78;;;21.15;;
45893;SDS011;31603;51.148;16.932;2022-09-30T03:08:31;38.75;;;23.02;;
45893;SDS011;31603;51.148;16.932;2022-09-30T03:10:57;34.38;;;22.02;;
45893;SDS011;31603;51.148;16.932;2022-09-30T03:13:32;34.72;;;21.02;;
45893;SDS011;31603;51.148;16.932;2022-09-30T03:16:17;35.85;;;21.15;;
45893;SDS011;31603;51.148;16.932;2022-09-30T03:19:00;35.17;;;21.05;;
45893;SDS011;31603;51.148;16.932;2022-09-30T03:21:44;36.63;;;19.60;;
45893;SDS011;31603;51.148;16.932;2022-09-30T03:24:27;39.08;;;24.00;;
45893;SDS011;31603;51.148;16.932;2022-09-30T03:27:05;37.03;;;20.98;;
45893;SDS011;31603;51.148;16.932;2022-09-30T03:29:41;33.00;;;20.30;;
45893;SDS011;31603;51.148;16.932;2022-09-30T03:32:15;31.15;;;20.60;;
45893;SDS011;31603;51.148;16.932;2022-09-30T03:35:00;39.60;;;24.90;;
45893;SDS011;31603;51.148;16.932;2022-09-30T03:37:33;34.88;;;20.05;;
45893;SDS011;31603;51.148;16.932;2022-09-30T03:40:13;36.33;;;22.60;;
45893;SDS011;31603;51.148;16.932;2022-09-30T03:42:49;36.85;;;22.75;;
45893;SDS011;31603;51.148;16.932;2022-09-30T03:45:22;39.10;;;22.40;;
45893;SDS011;31603;51.148;16.932;2022-09-30T03:47:54;36.50;;;23.60;;
45893;SDS011;31603;51.148;16.932;2022-09-30T03:50:27;39.25;;;24.13;;
45893;SDS011;31603;51.148;16.932;2022-09-30T03:52:55;39.53;;;23.70;;
45893;SDS011;31603;51.148;16.932;2022-09-30T03:55:22;42.47;;;24.42;;
45893;SDS011;31603;51.148;16.932;2022-09-30T03:57:49;36.55;;;23.60;;
45893;SDS011;31603;51.148;16.932;2022-09-30T04:00:18;41.38;;;24.65;;
45893;SDS011;31603;51.148;16.932;2022-09-30T04:02:46;36.65;;;24.05;;
45893;SDS011;31603;51.148;16.932;2022-09-30T04:05:12;46.17;;;27.08;;
45893;SDS011;31603;51.148;16.932;2022-09-30T04:07:40;38.47;;;23.52;;
45893;SDS011;31603;51.148;16.932;2022-09-30T04:10:07;40.45;;;25.65;;
45893;SDS011;31603;51.148;16.932;2022-09-30T04:12:34;37.10;;;22.40;;
45893;SDS011;31603;51.148;16.932;2022-09-30T04:15:00;42.72;;;24.80;;
45893;SDS011;31603;51.148;16.932;2022-09-30T04:17:27;44.83;;;25.17;;
45893;SDS011;31603;51.148;16.932;2022-09-30T04:19:53;43.55;;;24.63;;
45893;SDS011;31603;51.148;16.932;2022-09-30T04:22:20;38.55;;;23.17;;
45893;SDS011;31603;51.148;16.932;2022-09-30T04:24:47;39.47;;;23.45;;
45893;SDS011;31603;51.148;16.932;2022-09-30T04:27:14;48.33;;;27.52;;
45893;SDS011;31603;51.148;16.932;2022-09-30T04:29:40;42.05;;;25.48;;
45893;SDS011;31603;51.148;16.932;2022-09-30T04:32:07;37.72;;;23.42;;
45893;SDS011;31603;51.148;16.932;2022-09-30T04:34:33;36.58;;;23.95;;
45893;SDS011;31603;51.148;16.932;2022-09-30T04:37:00;40.45;;;23.75;;
45893;SDS011;31603;51.148;16.932;2022-09-30T04:39:26;35.67;;;23.27;;
45893;SDS011;31603;51.148;16.932;2022-09-30T04:41:54;38.20;;;24.05;;
45893;SDS011;31603;51.148;16.932;2022-09-30T04:44:21;55.35;;;34.08;;
45893;SDS011;31603;51.148;16.932;2022-09-30T04:46:47;50.78;;;33.35;;
45893;SDS011;31603;51.148;16.932;2022-09-30T04:49:18;45.80;;;29.42;;
45893;SDS011;31603;51.148;16.932;2022-09-30T04:51:44;45.13;;;28.48;;
45893;SDS011;31603;51.148;16.932;2022-09-30T04:54:11;40.20;;;24.08;;
45893;SDS011;31603;51.148;16.932;2022-09-30T04:56:40;37.78;;;25.77;;
45893;SDS011;31603;51.148;16.932;2022-09-30T04:59:08;53.08;;;33.28;;
45893;SDS011;31603;51.148;16.932;2022-09-30T05:01:34;58.00;;;35.55;;
45893;SDS011;31603;51.148;16.932;2022-09-30T05:04:01;47.65;;;29.10;;
45893;SDS011;31603;51.148;16.932;2022-09-30T05:06:27;45.30;;;28.98;;
45893;SDS011;31603;51.148;16.932;2022-09-30T05:08:54;43.58;;;27.15;;
45893;SDS011;31603;51.148;16.932;2022-09-30T05:11:20;43.50;;;26.77;;
45893;SDS011;31603;51.148;16.932;2022-09-30T05:13:48;37.13;;;23.67;;
45893;SDS011;31603;51.148;16.932;2022-09-30T05:16:17;40.03;;;24.23;;
45893;SDS011;31603;51.148;16.932;2022-09-30T05:18:43;38.95;;;24.40;;
45893;SDS011;31603;51.148;16.932;2022-09-30T05:21:11;35.28;;;21.65;;
45893;SDS011;31603;51.148;16.932;2022-09-30T05:23:38;52.70;;;30.67;;
45893;SDS011;31603;51.148;16.932;2022-09-30T05:26:04;44.88;;;27.13;;
45893;SDS011;31603;51.148;16.932;2022-09-30T05:28:31;38.15;;;23.73;;
45893;SDS011;31603;51.148;16.932;2022-09-30T05:31:01;35.05;;;20.50;;
45893;SDS011;31603;51.148;16.932;2022-09-30T05:33:31;35.05;;;21.25;;
45893;SDS011;31603;51.148;16.932;2022-09-30T05:35:59;36.90;;;21.20;;
45893;SDS011;31603;51.148;16.932;2022-09-30T05:38:27;38.42;;;22.23;;
45893;SDS011;31603;51.148;16.932;2022-09-30T05:40:54;45.05;;;25.67;;
45893;SDS011;31603;51.148;16.932;2022-09-30T05:43:20;48.03;;;28.75;;
45893;SDS011;31603;51.148;16.932;2022-09-30T05:45:51;44.55;;;26.10;;
45893;SDS011;31603;51.148;16.932;2022-09-30T05:48:19;44.22;;;25.00;;
45893;SDS011;31603;51.148;16.932;2022-09-30T05:50:47;42.10;;;25.80;;
45893;SDS011;31603;51.148;16.932;2022-09-30T05:53:15;36.15;;;21.33;;
45893;SDS011;31603;51.148;16.932;2022-09-30T05:55:43;39.03;;;24.70;;
45893;SDS011;31603;51.148;16.932;2022-09-30T05:58:11;42.05;;;26.23;;
45893;SDS011;31603;51.148;16.932;2022-09-30T06:00:38;45.45;;;24.58;;
45893;SDS011;31603;51.148;16.932;2022-09-30T06:03:05;41.65;;;24.25;;
45893;SDS011;31603;51.148;16.932;2022-09-30T06:05:31;44.92;;;27.48;;
45893;SDS011;31603;51.148;16.932;2022-09-30T06:07:59;44.78;;;24.15;;
45893;SDS011;31603;51.148;16.932;2022-09-30T06:10:25;47.92;;;25.85;;
45893;SDS011;31603;51.148;16.932;2022-09-30T06:12:52;40.95;;;24.38;;
45893;SDS011;31603;51.148;16.932;2022-09-30T06:15:18;53.47;;;28.77;;
45893;SDS011;31603;51.148;16.932;2022-09-30T06:17:45;42.03;;;22.40;;
45893;SDS011;31603;51.148;16.932;2022-09-30T06:20:17;45.20;;;24.27;;
45893;SDS011;31603;51.148;16.932;2022-09-30T06:22:43;50.45;;;27.98;;
45893;SDS011;31603;51.148;16.932;2022-09-30T06:25:11;51.95;;;29.05;;
45893;SDS011;31603;51.148;16.932;2022-09-30T06:27:40;47.03;;;25.83;;
45893;SDS011;31603;51.148;16.932;2022-09-30T06:30:10;43.53;;;27.70;;
45893;SDS011;31603;51.148;16.932;2022-09-30T06:32:37;37.45;;;23.58;;
45893;SDS011;31603;51.148;16.932;2022-09-30T06:35:03;38.85;;;25.38;;
45893;SDS011;31603;51.148;16.932;2022-09-30T06:37:30;42.22;;;27.08;;
45893;SDS011;31603;51.148;16.932;2022-09-30T06:39:57;44.47;;;26.70;;
45893;SDS011;31603;51.148;16.932;2022-09-30T06:42:24;48.28;;;26.60;;
45893;SDS011;31603;51.148;16.932;2022-09-30T06:44:51;42.45;;;25.40;;
45893;SDS011;31603;51.148;16.932;2022-09-30T06:47:17;39.58;;;24.27;;
45893;SDS011;31603;51.148;16.932;2022-09-30T06:49:46;42.78;;;26.00;;
45893;SDS011;31603;51.148;16.932;2022-09-30T06:52:12;38.45;;;24.27;;
45893;SDS011;31603;51.148;16.932;2022-09-30T06:54:39;46.47;;;26.50;;
45893;SDS011;31603;51.148;16.932;2022-09-30T06:57:07;41.53;;;25.08;;
45893;SDS011;31603;51.148;16.932;2022-09-30T06:59:35;42.20;;;26.50;;
45893;SDS011;31603;51.148;16.932;2022-09-30T07:02:02;57.78;;;33.88;;
45893;SDS011;31603;51.148;16.932;2022-09-30T07:04:28;52.30;;;29.08;;
45893;SDS011;31603;51.148;16.932;2022-09-30T07:06:56;51.38;;;30.67;;
45893;SDS011;31603;51.148;16.932;2022-09-30T07:09:22;43.85;;;24.70;;
45893;SDS011;31603;51.148;16.932;2022-09-30T07:11:49;45.22;;;26.08;;
45893;SDS011;31603;51.148;16.932;2022-09-30T07:14:16;37.88;;;23.23;;
45893;SDS011;31603;51.148;16.932;2022-09-30T07:16:44;46.92;;;25.92;;
45893;SDS011;31603;51.148;16.932;2022-09-30T07:19:11;42.05;;;25.50;;
45893;SDS011;31603;51.148;16.932;2022-09-30T07:21:38;45.28;;;27.52;;
45893;SDS011;31603;51.148;16.932;2022-09-30T07:24:05;50.15;;;29.40;;
45893;SDS011;31603;51.148;16.932;2022-09-30T07:26:33;44.53;;;23.92;;
45893;SDS011;31603;51.148;16.932;2022-09-30T07:28:59;48.58;;;29.05;;
45893;SDS011;31603;51.148;16.932;2022-09-30T07:31:26;44.03;;;24.77;;
45893;SDS011;31603;51.148;16.932;2022-09-30T07:33:54;42.72;;;23.30;;
45893;SDS011;31603;51.148;16.932;2022-09-30T07:36:22;47.67;;;26.08;;
45893;SDS011;31603;51.148;16.932;2022-09-30T07:38:53;41.20;;;23.23;;
45893;SDS011;31603;51.148;16.932;2022-09-30T07:41:21;46.83;;;22.88;;
45893;SDS011;31603;51.148;16.932;2022-09-30T07:43:51;47.13;;;26.30;;
45893;SDS011;31603;51.148;16.932;2022-09-30T07:46:20;56.28;;;24.42;;
45893;SDS011;31603;51.148;16.932;2022-09-30T07:48:48;43.90;;;25.98;;
45893;SDS011;31603;51.148;16.932;2022-09-30T07:51:18;47.08;;;25.33;;
45893;SDS011;31603;51.148;16.932;2022-09-30T07:53:47;66.32;;;32.33;;
45893;SDS011;31603;51.148;16.932;2022-09-30T07:56:15;44.55;;;22.02;;
45893;SDS011;31603;51.148;16.932;2022-09-30T07:58:42;68.35;;;35.33;;
45893;SDS011;31603;51.148;16.932;2022-09-30T08:01:09;51.20;;;24.65;;
45893;SDS011;31603;51.148;16.932;2022-09-30T08:03:36;49.35;;;25.23;;
45893;SDS011;31603;51.148;16.932;2022-09-30T08:06:05;53.78;;;28.65;;
45893;SDS011;31603;51.148;16.932;2022-09-30T08:08:37;43.78;;;23.70;;
45893;SDS011;31603;51.148;16.932;2022-09-30T08:11:04;54.58;;;27.23;;
45893;SDS011;31603;51.148;16.932;2022-09-30T08:13:31;49.33;;;24.55;;
45893;SDS011;31603;51.148;16.932;2022-09-30T08:15:58;54.28;;;27.08;;
45893;SDS011;31603;51.148;16.932;2022-09-30T08:18:25;51.33;;;26.10;;
45893;SDS011;31603;51.148;16.932;2022-09-30T08:20:52;55.08;;;26.60;;
45893;SDS011;31603;51.148;16.932;2022-09-30T08:23:19;41.83;;;24.88;;
45893;SDS011;31603;51.148;16.932;2022-09-30T08:25:47;122.38;;;81.63;;
45893;SDS011;31603;51.148;16.932;2022-09-30T08:28:14;38.72;;;22.50;;
45893;SDS011;31603;51.148;16.932;2022-09-30T08:30:43;40.20;;;23.42;;
45893;SDS011;31603;51.148;16.932;2022-09-30T08:33:09;53.88;;;33.08;;
45893;SDS011;31603;51.148;16.932;2022-09-30T08:35:36;38.78;;;23.98;;
45893;SDS011;31603;51.148;16.932;2022-09-30T08:38:02;46.72;;;24.88;;
45893;SDS011;31603;51.148;16.932;2022-09-30T08:40:30;80.30;;;63.22;;
45893;SDS011;31603;51.148;16.932;2022-09-30T08:43:09;44.38;;;25.73;;
45893;SDS011;31603;51.148;16.932;2022-09-30T08:45:49;35.90;;;22.23;;
45893;SDS011;31603;51.148;16.932;2022-09-30T08:48:30;41.10;;;21.67;;
45893;SDS011;31603;51.148;16.932;2022-09-30T08:51:21;40.40;;;22.55;;
45893;SDS011;31603;51.148;16.932;2022-09-30T08:53:53;38.05;;;22.55;;
45893;SDS011;31603;51.148;16.932;2022-09-30T08:56:22;37.70;;;24.73;;
45893;SDS011;31603;51.148;16.932;2022-09-30T08:58:54;39.97;;;22.63;;
45893;SDS011;31603;51.148;16.932;2022-09-30T09:01:25;38.80;;;20.75;;
45893;SDS011;31603;51.148;16.932;2022-09-30T09:03:57;54.58;;;23.33;;
45893;SDS011;31603;51.148;16.932;2022-09-30T09:06:25;40.17;;;22.58;;
45893;SDS011;31603;51.148;16.932;2022-09-30T09:09:06;47.55;;;24.15;;
45893;SDS011;31603;51.148;16.932;2022-09-30T09:11:46;41.53;;;21.90;;
45893;SDS011;31603;51.148;16.932;2022-09-30T09:14:25;48.65;;;23.02;;
45893;SDS011;31603;51.148;16.932;2022-09-30T09:17:02;43.13;;;22.33;;
45893;SDS011;31603;51.148;16.932;2022-09-30T09:19:40;32.35;;;20.85;;
45893;SDS011;31603;51.148;16.932;2022-09-30T09:22:13;37.40;;;21.17;;
45893;SDS011;31603;51.148;16.932;2022-09-30T09:24:42;34.40;;;20.60;;
45893;SDS011;31603;51.148;16.932;2022-09-30T09:27:17;33.45;;;20.35;;
45893;SDS011;31603;51.148;16.932;2022-09-30T09:29:51;28.73;;;19.73;;
45893;SDS011;31603;51.148;16.932;2022-09-30T09:32:26;26.65;;;18.00;;
45893;SDS011;31603;51.148;16.932;2022-09-30T09:34:54;31.90;;;19.25;;
45893;SDS011;31603;51.148;16.932;2022-09-30T09:37:27;33.90;;;19.98;;
45893;SDS011;31603;51.148;16.932;2022-09-30T09:40:20;37.53;;;23.10;;
45893;SDS011;31603;51.148;16.932;2022-09-30T09:42:55;33.35;;;21.00;;
45893;SDS011;31603;51.148;16.932;2022-09-30T09:45:34;33.83;;;20.40;;
45893;SDS011;31603;51.148;16.932;2022-09-30T09:48:06;32.13;;;20.38;;
45893;SDS011;31603;51.148;16.932;2022-09-30T09:50:38;33.63;;;20.20;;
45893;SDS011;31603;51.148;16.932;2022-09-30T09:56:10;34.08;;;21.60;;
45893;SDS011;31603;51.148;16.932;2022-09-30T10:01:36;30.02;;;19.92;;
45893;SDS011;31603;51.148;16.932;2022-09-30T10:04:06;31.15;;;19.80;;
45893;SDS011;31603;51.148;16.932;2022-09-30T10:06:41;30.27;;;18.92;;
45893;SDS011;31603;51.148;16.932;2022-09-30T10:09:19;33.67;;;22.00;;
45893;SDS011;31603;51.148;16.932;2022-09-30T10:11:49;37.38;;;20.40;;
45893;SDS011;31603;51.148;16.932;2022-09-30T10:14:16;34.38;;;19.48;;
45893;SDS011;31603;51.148;16.932;2022-09-30T10:16:47;37.70;;;23.70;;
45893;SDS011;31603;51.148;16.932;2022-09-30T10:19:17;36.70;;;20.48;;
45893;SDS011;31603;51.148;16.932;2022-09-30T10:21:46;35.03;;;20.15;;
45893;SDS011;31603;51.148;16.932;2022-09-30T10:24:19;33.22;;;22.23;;
45893;SDS011;31603;51.148;16.932;2022-09-30T10:26:53;28.73;;;17.58;;
45893;SDS011;31603;51.148;16.932;2022-09-30T10:29:26;38.28;;;22.65;;
45893;SDS011;31603;51.148;16.932;2022-09-30T10:31:57;41.70;;;23.58;;
45893;SDS011;31603;51.148;16.932;2022-09-30T10:34:25;30.15;;;18.70;;
45893;SDS011;31603;51.148;16.932;2022-09-30T10:36:54;31.60;;;18.42;;
45893;SDS011;31603;51.148;16.932;2022-09-30T10:39:22;29.55;;;18.25;;
45893;SDS011;31603;51.148;16.932;2022-09-30T10:41:51;28.25;;;17.83;;
45893;SDS011;31603;51.148;16.932;2022-09-30T10:44:27;28.40;;;18.10;;
45893;SDS011;31603;51.148;16.932;2022-09-30T10:46:58;28.40;;;15.90;;
45893;SDS011;31603;51.148;16.932;2022-09-30T10:49:28;27.63;;;16.45;;
45893;SDS011;31603;51.148;16.932;2022-09-30T10:51:58;26.67;;;17.85;;
45893;SDS011;31603;51.148;16.932;2022-09-30T10:54:34;27.88;;;17.38;;
45893;SDS011;31603;51.148;16.932;2022-09-30T10:57:11;29.85;;;18.20;;
45893;SDS011;31603;51.148;16.932;2022-09-30T10:59:40;32.90;;;17.38;;
45893;SDS011;31603;51.148;16.932;2022-09-30T11:02:15;26.98;;;16.40;;
45893;SDS011;31603;51.148;16.932;2022-09-30T11:04:47;25.67;;;14.85;;
45893;SDS011;31603;51.148;16.932;2022-09-30T11:07:20;24.88;;;15.13;;
45893;SDS011;31603;51.148;16.932;2022-09-30T11:09:54;23.52;;;15.82;;
45893;SDS011;31603;51.148;16.932;2022-09-30T11:12:27;21.30;;;13.82;;
45893;SDS011;31603;51.148;16.932;2022-09-30T11:15:02;21.92;;;14.32;;
45893;SDS011;31603;51.148;16.932;2022-09-30T11:17:37;20.38;;;13.57;;
45893;SDS011;31603;51.148;16.932;2022-09-30T11:20:14;23.85;;;13.82;;
45893;SDS011;31603;51.148;16.932;2022-09-30T11:22:48;21.23;;;14.02;;
45893;SDS011;31603;51.148;16.932;2022-09-30T11:25:22;21.13;;;13.23;;
45893;SDS011;31603;51.148;16.932;2022-09-30T11:27:57;23.45;;;14.25;;
45893;SDS011;31603;51.148;16.932;2022-09-30T11:30:37;24.02;;;13.05;;
45893;SDS011;31603;51.148;16.932;2022-09-30T11:33:21;18.65;;;12.00;;
45893;SDS011;31603;51.148;16.932;2022-09-30T11:36:00;27.35;;;12.38;;
45893;SDS011;31603;51.148;16.932;2022-09-30T11:38:38;22.33;;;12.73;;
45893;SDS011;31603;51.148;16.932;2022-09-30T11:41:16;19.15;;;12.23;;
45893;SDS011;31603;51.148;16.932;2022-09-30T11:43:50;19.67;;;11.80;;
45893;SDS011;31603;51.148;16.932;2022-09-30T11:46:45;20.27;;;12.88;;
45893;SDS011;31603;51.148;16.932;2022-09-30T11:49:27;20.48;;;12.48;;
45893;SDS011;31603;51.148;16.932;2022-09-30T11:52:07;17.00;;;10.23;;
45893;SDS011;31603;51.148;16.932;2022-09-30T11:54:45;19.90;;;11.90;;
45893;SDS011;31603;51.148;16.932;2022-09-30T11:57:23;16.75;;;11.07;;
45893;SDS011;31603;51.148;16.932;2022-09-30T11:59:56;20.65;;;10.93;;
45893;SDS011;31603;51.148;16.932;2022-09-30T12:02:28;15.60;;;9.63;;
45893;SDS011;31603;51.148;16.932;2022-09-30T12:05:04;17.52;;;10.13;;
45893;SDS011;31603;51.148;16.932;2022-09-30T12:07:37;14.07;;;8.20;;
45893;SDS011;31603;51.148;16.932;2022-09-30T12:10:13;15.88;;;8.77;;
45893;SDS011;31603;51.148;16.932;2022-09-30T12:12:44;15.38;;;9.40;;
45893;SDS011;31603;51.148;16.932;2022-09-30T12:15:15;14.32;;;9.45;;
45893;SDS011;31603;51.148;16.932;2022-09-30T12:17:45;12.50;;;8.63;;
45893;SDS011;31603;51.148;16.932;2022-09-30T12:20:17;15.35;;;9.55;;
45893;SDS011;31603;51.148;16.932;2022-09-30T12:22:50;17.35;;;11.63;;
45893;SDS011;31603;51.148;16.932;2022-09-30T12:25:20;13.23;;;9.55;;
45893;SDS011;31603;51.148;16.932;2022-09-30T12:27:50;11.88;;;7.78;;
45893;SDS011;31603;51.148;16.932;2022-09-30T12:30:21;14.07;;;9.52;;
45893;SDS011;31603;51.148;16.932;2022-09-30T12:33:08;13.15;;;9.05;;
45893;SDS011;31603;51.148;16.932;2022-09-30T12:35:52;15.02;;;8.95;;
45893;SDS011;31603;51.148;16.932;2022-09-30T12:38:51;13.18;;;8.15;;
45893;SDS011;31603;51.148;16.932;2022-09-30T12:41:31;16.42;;;9.40;;
45893;SDS011;31603;51.148;16.932;2022-09-30T12:44:22;13.35;;;7.78;;
45893;SDS011;31603;51.148;16.932;2022-09-30T12:47:09;13.77;;;8.65;;
45893;SDS011;31603;51.148;16.932;2022-09-30T12:49:47;14.00;;;8.45;;
45893;SDS011;31603;51.148;16.932;2022-09-30T12:52:17;14.18;;;8.70;;
45893;SDS011;31603;51.148;16.932;2022-09-30T12:54:47;12.82;;;7.18;;
45893;SDS011;31603;51.148;16.932;2022-09-30T12:57:17;15.93;;;7.30;;
45893;SDS011;31603;51.148;16.932;2022-09-30T12:59:50;12.70;;;7.25;;
45893;SDS011;31603;51.148;16.932;2022-09-30T13:02:27;14.32;;;7.53;;
45893;SDS011;31603;51.148;16.932;2022-09-30T13:08:22;11.52;;;6.78;;
45893;SDS011;31603;51.148;16.932;2022-09-30T13:11:05;13.55;;;6.80;;
45893;SDS011;31603;51.148;16.932;2022-09-30T13:13:55;11.05;;;6.22;;
45893;SDS011;31603;51.148;16.932;2022-09-30T13:19:30;8.55;;;6.03;;
45893;SDS011;31603;51.148;16.932;2022-09-30T13:25:14;6.80;;;5.00;;
45893;SDS011;31603;51.148;16.932;2022-09-30T13:27:42;3.95;;;3.42;;
45893;SDS011;31603;51.148;16.932;2022-09-30T13:30:29;6.30;;;3.88;;
45893;SDS011;31603;51.148;16.932;2022-09-30T13:35:55;5.10;;;4.18;;
45893;SDS011;31603;51.148;16.932;2022-09-30T13:38:32;15.25;;;5.13;;
45893;SDS011;31603;51.148;16.932;2022-09-30T13:41:03;9.95;;;4.95;;
45893;SDS011;31603;51.148;16.932;2022-09-30T13:43:41;11.55;;;5.15;;
45893;SDS011;31603;51.148;16.932;2022-09-30T13:46:12;7.15;;;3.70;;
45893;SDS011;31603;51.148;16.932;2022-09-30T13:48:48;7.53;;;4.22;;
45893;SDS011;31603;51.148;16.932;2022-09-30T13:51:17;7.65;;;3.90;;
45893;SDS011;31603;51.148;16.932;2022-09-30T13:53:48;13.90;;;4.68;;
45893;SDS011;31603;51.148;16.932;2022-09-30T13:56:21;12.77;;;4.90;;
45893;SDS011;31603;51.148;16.932;2022-09-30T13:58:58;10.63;;;5.37;;
45893;SDS011;31603;51.148;16.932;2022-09-30T14:01:44;8.50;;;4.55;;
45893;SDS011;31603;51.148;16.932;2022-09-30T14:04:34;5.85;;;3.80;;
45893;SDS011;31603;51.148;16.932;2022-09-30T14:07:12;8.23;;;4.72;;
45893;SDS011;31603;51.148;16.932;2022-09-30T14:09:52;5.47;;;4.18;;
45893;SDS011;31603;51.148;16.932;2022-09-30T14:12:35;7.10;;;4.13;;
45893;SDS011;31603;51.148;16.932;2022-09-30T14:15:22;7.18;;;4.07;;
45893;SDS011;31603;51.148;16.932;2022-09-30T14:21:29;7.10;;;4.70;;
45893;SDS011;31603;51.148;16.932;2022-09-30T14:24:00;6.55;;;4.10;;
45893;SDS011;31603;51.148;16.932;2022-09-30T14:26:47;7.65;;;4.07;;
45893;SDS011;31603;51.148;16.932;2022-09-30T14:29:27;10.02;;;5.18;;
45893;SDS011;31603;51.148;16.932;2022-09-30T14:32:08;6.88;;;4.22;;
45893;SDS011;31603;51.148;16.932;2022-09-30T14:34:36;7.25;;;4.18;;
45893;SDS011;31603;51.148;16.932;2022-09-30T14:37:04;5.60;;;3.88;;
45893;SDS011;31603;51.148;16.932;2022-09-30T14:39:31;7.63;;;3.78;;
45893;SDS011;31603;51.148;16.932;2022-09-30T14:41:59;9.18;;;4.05;;
45893;SDS011;31603;51.148;16.932;2022-09-30T14:44:28;7.53;;;3.50;;
45893;SDS011;31603;51.148;16.932;2022-09-30T14:47:00;5.13;;;3.78;;
45893;SDS011;31603;51.148;16.932;2022-09-30T14:49:30;5.03;;;3.65;;
45893;SDS011;31603;51.148;16.932;2022-09-30T14:52:01;4.65;;;3.50;;
45893;SDS011;31603;51.148;16.932;2022-09-30T14:54:30;5.75;;;4.20;;
45893;SDS011;31603;51.148;16.932;2022-09-30T14:56:58;7.88;;;4.97;;
45893;SDS011;31603;51.148;16.932;2022-09-30T14:59:27;6.47;;;4.38;;
45893;SDS011;31603;51.148;16.932;2022-09-30T15:01:57;6.53;;;3.90;;
45893;SDS011;31603;51.148;16.932;2022-09-30T15:04:26;6.25;;;3.95;;
45893;SDS011;31603;51.148;16.932;2022-09-30T15:06:57;6.25;;;4.65;;
45893;SDS011;31603;51.148;16.932;2022-09-30T15:09:26;5.28;;;3.80;;
45893;SDS011;31603;51.148;16.932;2022-09-30T15:12:03;5.57;;;3.70;;